createdAt,value
2019-02-05T00:01:28.163Z,5.90
2019-02-05T00:03:58.600Z,5.90
2019-02-05T00:06:28.558Z,5.70
2019-02-05T00:08:58.482Z,5.60
2019-02-05T00:11:28.754Z,5.33
2019-02-05T00:13:58.821Z,5.70
2019-02-05T00:16:28.741Z,5.63
2019-02-05T00:18:59.053Z,5.60
2019-02-05T00:21:28.982Z,5.70
2019-02-05T00:23:59.038Z,5.40
2019-02-05T00:26:28.918Z,5.73
2019-02-05T00:28:58.951Z,5.77
2019-02-05T00:31:28.946Z,5.93
2019-02-05T00:33:58.943Z,5.90
2019-02-05T00:36:28.795Z,5.70
2019-02-05T00:38:58.652Z,6.20
2019-02-05T00:41:28.682Z,5.67
2019-02-05T00:43:58.674Z,5.83
2019-02-05T00:46:28.699Z,5.83
2019-02-05T00:48:58.614Z,5.73
2019-02-05T00:51:28.622Z,5.80
2019-02-05T00:53:58.478Z,5.30
2019-02-05T00:56:28.494Z,5.60
2019-02-05T00:58:58.497Z,5.73
2019-02-05T01:01:28.735Z,5.97
2019-02-05T01:03:58.737Z,5.60
2019-02-05T01:06:28.594Z,5.90
2019-02-05T01:08:58.645Z,5.93
2019-02-05T01:11:28.638Z,5.63
2019-02-05T01:13:58.583Z,5.67
2019-02-05T01:16:28.584Z,5.63
2019-02-05T01:18:58.517Z,5.87
2019-02-05T01:21:28.518Z,5.70
2019-02-05T01:23:58.502Z,5.77
2019-02-05T01:26:29.666Z,5.83
2019-02-05T01:29:00.119Z,5.53
2019-02-05T01:31:30.058Z,5.50
2019-02-05T01:33:59.985Z,5.70
2019-02-05T01:36:29.885Z,5.50
2019-02-05T01:38:59.826Z,5.77
2019-02-05T01:41:29.677Z,5.47
2019-02-05T01:43:59.602Z,5.40
2019-02-05T01:46:29.607Z,5.60
2019-02-05T01:48:59.530Z,5.23
2019-02-05T01:51:29.414Z,5.27
2019-02-05T01:53:59.353Z,4.97
2019-02-05T01:56:40.173Z,5.30
2019-02-05T01:59:01.231Z,5.47
2019-02-05T02:01:31.167Z,5.27
2019-02-05T02:04:01.093Z,5.57
2019-02-05T02:06:31.091Z,5.10
2019-02-05T02:09:01.110Z,5.53
2019-02-05T02:11:32.655Z,5.50
2019-02-05T02:14:02.537Z,5.33
2019-02-05T02:16:32.462Z,5.30
2019-02-05T02:19:02.390Z,5.27
2019-02-05T02:21:32.174Z,5.10
2019-02-05T02:24:02.199Z,5.23
2019-02-05T02:26:32.198Z,5.27
2019-02-05T02:29:02.214Z,4.87
2019-02-05T02:31:32.975Z,5.23
2019-02-05T02:34:02.898Z,5.03
2019-02-05T02:36:32.942Z,5.37
2019-02-05T02:39:04.530Z,5.30
2019-02-05T02:41:34.882Z,4.77
2019-02-05T02:44:04.804Z,4.80
2019-02-05T02:46:34.761Z,5.00
2019-02-05T02:49:04.752Z,5.37
2019-02-05T02:51:34.761Z,5.23
2019-02-05T02:54:04.686Z,5.10
2019-02-05T02:56:34.630Z,5.30
2019-02-05T02:59:04.544Z,5.10
2019-02-05T03:01:35.434Z,5.00
2019-02-05T03:04:05.931Z,4.93
2019-02-05T03:06:36.199Z,4.87
2019-02-05T03:09:09.375Z,5.00
2019-02-05T03:11:39.470Z,4.87
2019-02-05T03:14:09.347Z,4.90
2019-02-05T03:16:39.310Z,4.90
2019-02-05T03:19:09.307Z,5.10
2019-02-05T03:21:39.448Z,4.90
2019-02-05T03:24:10.408Z,5.30
2019-02-05T03:26:40.361Z,5.10
2019-02-05T03:29:10.355Z,4.80
2019-02-05T03:31:40.355Z,4.73
2019-02-05T03:34:10.356Z,4.93
2019-02-05T03:36:40.273Z,5.30
2019-02-05T03:39:10.299Z,5.30
2019-02-05T03:41:40.301Z,5.73
2019-02-05T03:44:10.245Z,5.30
2019-02-05T03:46:40.239Z,5.67
2019-02-05T03:49:10.239Z,5.30
2019-02-05T03:52:30.423Z,5.60
2019-02-05T03:55:19.078Z,5.33
2019-02-05T03:57:58.990Z,5.43
2019-02-05T04:00:55.661Z,5.70
2019-02-05T04:04:04.809Z,5.27
2019-02-05T04:07:08.686Z,5.40
2019-02-05T04:10:20.781Z,5.87
2019-02-05T04:13:20.723Z,5.90
2019-02-05T04:16:05.895Z,5.13
2019-02-05T04:18:49.833Z,5.73
2019-02-05T04:21:59.641Z,5.20
2019-02-05T04:24:56.305Z,5.47
2019-02-05T04:27:43.608Z,5.10
2019-02-05T04:31:03.227Z,5.47
2019-02-05T04:33:55.711Z,5.00
2019-02-05T04:37:12.909Z,5.40
2019-02-05T04:40:30.446Z,5.30
2019-02-05T04:43:39.313Z,5.53
2019-02-05T04:46:48.774Z,5.30
2019-02-05T04:49:44.713Z,5.47
2019-02-05T04:52:56.166Z,5.47
2019-02-05T04:56:06.243Z,5.80
2019-02-05T04:59:28.634Z,5.47
2019-02-05T05:02:24.231Z,5.97
2019-02-05T05:05:17.134Z,5.43
2019-02-05T05:07:58.003Z,5.90
2019-02-05T05:10:27.930Z,5.60
2019-02-05T05:12:57.875Z,5.23
2019-02-05T05:15:27.814Z,5.60
2019-02-05T05:17:57.870Z,5.73
2019-02-05T05:20:28.166Z,5.67
2019-02-05T05:22:58.166Z,5.37
2019-02-05T05:25:28.013Z,5.90
2019-02-05T05:28:09.695Z,5.97
2019-02-05T05:30:32.224Z,5.73
2019-02-05T05:33:02.257Z,5.97
2019-02-05T05:35:40.626Z,5.60
2019-02-05T05:38:04.240Z,5.80
2019-02-05T05:40:34.240Z,5.90
2019-02-05T05:43:04.281Z,6.10
2019-02-05T05:45:34.283Z,6.40
2019-02-05T05:48:04.294Z,5.90
2019-02-05T05:50:34.586Z,6.57
2019-02-05T05:53:04.589Z,6.43
2019-02-05T05:55:34.613Z,6.37
2019-02-05T05:58:04.629Z,6.30
2019-02-05T06:00:34.625Z,6.23
2019-02-05T06:03:04.661Z,6.23
2019-02-05T06:05:34.887Z,6.33
2019-02-05T06:08:04.897Z,6.63
2019-02-05T06:10:34.830Z,7.03
2019-02-05T06:13:04.837Z,6.70
2019-02-05T06:15:35.957Z,6.50
2019-02-05T06:18:06.262Z,7.03
2019-02-05T06:20:36.464Z,6.63
2019-02-05T06:23:06.466Z,6.83
2019-02-05T06:25:36.394Z,6.33
2019-02-05T06:28:06.416Z,6.53
2019-02-05T06:30:36.447Z,6.70
2019-02-05T06:33:06.400Z,6.77
2019-02-05T06:35:36.534Z,6.87
2019-02-05T06:38:06.451Z,6.80
2019-02-05T06:40:36.441Z,6.50
2019-02-05T06:43:06.450Z,6.70
2019-02-05T06:45:36.568Z,6.13
2019-02-05T06:48:07.885Z,6.40
2019-02-05T06:50:37.991Z,6.87
2019-02-05T06:53:08.014Z,6.73
2019-02-05T06:55:37.960Z,6.60
2019-02-05T06:58:08.037Z,6.40
2019-02-05T07:00:38.046Z,6.70
2019-02-05T07:03:08.081Z,6.30
2019-02-05T07:05:38.313Z,6.97
2019-02-05T07:08:08.321Z,6.53
2019-02-05T07:10:38.381Z,6.50
2019-02-05T07:13:08.228Z,6.30
2019-02-05T07:15:38.094Z,6.70
2019-02-05T07:18:08.044Z,6.50
2019-02-05T07:20:38.382Z,6.03
2019-02-05T07:23:08.309Z,6.40
2019-02-05T07:25:38.319Z,6.50
2019-02-05T07:28:08.277Z,6.70
2019-02-05T07:30:38.240Z,5.93
2019-02-05T07:33:08.489Z,6.37
2019-02-05T07:35:38.810Z,6.10
2019-02-05T07:38:08.914Z,6.03
2019-02-05T07:40:38.892Z,6.27
2019-02-05T07:43:09.453Z,6.17
2019-02-05T07:45:40.645Z,6.00
2019-02-05T07:48:11.986Z,6.00
2019-02-05T07:50:41.991Z,5.90
2019-02-05T07:53:11.996Z,6.50
2019-02-05T07:55:41.999Z,6.00
2019-02-05T07:58:12.048Z,5.83
2019-02-05T08:00:42.135Z,5.67
2019-02-05T08:03:12.235Z,6.10
2019-02-05T08:05:42.221Z,5.67
2019-02-05T08:08:12.542Z,6.13
2019-02-05T08:10:42.594Z,6.50
2019-02-05T08:13:12.514Z,7.30
2019-02-05T08:15:42.554Z,6.47
2019-02-05T08:18:12.522Z,6.83
2019-02-05T08:20:42.562Z,6.77
2019-02-05T08:23:12.510Z,7.30
2019-02-05T08:25:42.851Z,6.70
2019-02-05T08:28:12.810Z,7.27
2019-02-05T08:30:45.196Z,6.87
2019-02-05T08:33:15.125Z,7.97
2019-02-05T08:35:45.061Z,6.87
2019-02-05T08:38:15.087Z,7.00
2019-02-05T08:40:45.490Z,6.87
2019-02-05T08:43:15.426Z,7.17
2019-02-05T08:45:56.017Z,7.07
2019-02-05T08:48:17.838Z,7.00
2019-02-05T08:50:47.845Z,7.37
2019-02-05T08:53:17.861Z,7.10
2019-02-05T08:55:48.065Z,6.90
2019-02-05T08:58:17.993Z,7.30
2019-02-05T09:00:47.925Z,6.73
2019-02-05T09:03:17.936Z,7.00
2019-02-05T09:05:47.879Z,7.07
2019-02-05T09:08:17.758Z,7.00
2019-02-05T09:10:47.784Z,7.17
2019-02-05T09:13:17.851Z,6.77
2019-02-05T09:15:48.949Z,6.90
2019-02-05T09:18:19.066Z,7.63
2019-02-05T09:20:49.039Z,7.20
2019-02-05T09:23:19.071Z,6.97
2019-02-05T09:25:49.063Z,6.50
2019-02-05T09:28:19.093Z,7.10
2019-02-05T09:30:49.094Z,6.50
2019-02-05T09:33:19.186Z,6.50
2019-02-05T09:35:49.257Z,6.93
2019-02-05T09:38:19.274Z,6.53
2019-02-05T09:40:49.211Z,6.33
2019-02-05T09:43:19.565Z,6.33
2019-02-05T09:45:49.598Z,7.13
2019-02-05T09:48:19.546Z,6.73
2019-02-05T09:50:49.584Z,6.87
2019-02-05T09:53:19.607Z,6.27
2019-02-05T09:55:49.571Z,6.77
2019-02-05T09:58:20.790Z,6.50
2019-02-05T10:00:50.758Z,6.70
2019-02-05T10:03:20.770Z,6.33
2019-02-05T10:05:50.766Z,6.50
2019-02-05T10:08:20.698Z,6.27
2019-02-05T10:10:50.793Z,6.30
2019-02-05T10:13:22.250Z,6.40
2019-02-05T10:15:52.210Z,6.57
2019-02-05T10:18:22.251Z,6.43
2019-02-05T10:20:52.255Z,6.27
2019-02-05T10:23:22.206Z,6.87
2019-02-05T10:25:52.212Z,6.83
2019-02-05T10:28:22.229Z,6.30
2019-02-05T10:30:52.248Z,6.70
2019-02-05T10:33:22.252Z,6.37
2019-02-05T10:35:52.177Z,6.03
2019-02-05T10:38:22.119Z,6.07
2019-02-05T10:40:52.114Z,6.60
2019-02-05T10:43:22.114Z,6.13
2019-02-05T10:45:53.096Z,6.67
2019-02-05T10:48:24.048Z,6.10
2019-02-05T10:50:54.058Z,6.17
2019-02-05T10:53:24.050Z,6.77
2019-02-05T10:55:53.976Z,6.10
2019-02-05T10:58:23.904Z,6.20
2019-02-05T11:00:53.856Z,6.40
2019-02-05T11:03:23.793Z,6.60
2019-02-05T11:05:53.808Z,6.83
2019-02-05T11:08:23.773Z,6.40
2019-02-05T11:10:53.816Z,6.17
2019-02-05T11:13:23.837Z,6.40
2019-02-05T11:15:54.030Z,6.13
2019-02-05T11:18:24.049Z,6.87
2019-02-05T11:20:54.057Z,6.30
2019-02-05T11:23:23.990Z,6.37
2019-02-05T11:25:53.967Z,6.77
2019-02-05T11:28:23.892Z,6.37
2019-02-05T11:30:55.420Z,6.33
2019-02-05T11:33:25.346Z,6.50
2019-02-05T11:35:55.349Z,7.00
2019-02-05T11:38:25.270Z,7.00
2019-02-05T11:40:55.285Z,6.77
2019-02-05T11:43:25.207Z,6.70
2019-02-05T11:45:55.506Z,6.67
2019-02-05T11:48:26.419Z,6.37
2019-02-05T11:50:56.434Z,6.77
2019-02-05T11:53:26.451Z,6.57
2019-02-05T11:55:56.453Z,6.70
2019-02-05T11:58:26.333Z,7.13
2019-02-05T12:01:01.541Z,6.93
2019-02-05T12:03:32.580Z,6.60
2019-02-05T12:06:03.667Z,6.73
2019-02-05T12:08:33.581Z,6.67
2019-02-05T12:11:03.653Z,6.23
2019-02-05T12:13:33.506Z,6.40
2019-02-05T12:16:03.845Z,6.60
2019-02-05T12:18:33.841Z,6.90
2019-02-05T12:21:03.853Z,6.33
2019-02-05T12:23:33.862Z,6.57
2019-02-05T12:26:03.792Z,6.93
2019-02-05T12:28:33.850Z,6.43
2019-02-05T12:31:03.855Z,6.73
2019-02-05T12:33:33.813Z,6.60
2019-02-05T12:36:03.834Z,6.80
2019-02-05T12:38:33.868Z,7.00
2019-02-05T12:41:03.809Z,6.73
2019-02-05T12:43:33.738Z,6.93
2019-02-05T12:46:04.675Z,6.93
2019-02-05T12:48:34.641Z,6.93
2019-02-05T12:51:04.902Z,6.30
2019-02-05T12:53:34.811Z,6.57
2019-02-05T12:56:04.858Z,6.37
2019-02-05T12:58:34.809Z,7.20
2019-02-05T13:01:04.802Z,6.80
2019-02-05T13:03:34.654Z,7.03
2019-02-05T13:06:04.518Z,7.20
2019-02-05T13:08:34.375Z,6.83
2019-02-05T13:11:04.320Z,7.47
2019-02-05T13:13:34.321Z,7.03
2019-02-05T13:16:04.642Z,7.47
2019-02-05T13:18:34.585Z,7.50
2019-02-05T13:21:04.631Z,7.23
2019-02-05T13:23:34.625Z,7.30
2019-02-05T13:26:04.666Z,7.33
2019-02-05T13:28:34.554Z,11.70
2019-02-05T13:31:08.146Z,28.40
2019-02-05T13:33:36.109Z,83.47
2019-02-05T13:36:09.990Z,116.70
2019-02-05T13:38:40.013Z,110.23
2019-02-05T13:41:09.937Z,119.87
2019-02-05T13:43:39.962Z,128.63
2019-02-05T13:46:09.983Z,127.93
2019-02-05T13:48:39.998Z,117.23
2019-02-05T13:51:09.947Z,119.37
2019-02-05T13:53:40.053Z,112.73
2019-02-05T13:56:10.075Z,111.30
2019-02-05T13:58:40.002Z,107.30
2019-02-05T14:01:19.576Z,105.10
2019-02-05T14:03:41.737Z,102.87
2019-02-05T14:06:11.654Z,98.43
2019-02-05T14:08:41.705Z,91.53
2019-02-05T14:11:11.849Z,88.77
2019-02-05T14:13:41.708Z,85.80
2019-02-05T14:16:11.418Z,85.33
2019-02-05T14:18:41.363Z,84.33
2019-02-05T14:21:11.361Z,81.67
2019-02-05T14:23:41.374Z,78.03
2019-02-05T14:26:11.533Z,74.43
2019-02-05T14:28:41.504Z,71.80
2019-02-05T14:31:11.433Z,69.63
2019-02-05T14:33:41.311Z,67.53
2019-02-05T14:36:11.316Z,67.07
2019-02-05T14:38:41.183Z,65.43
2019-02-05T14:41:11.296Z,63.07
2019-02-05T14:43:41.305Z,62.93
2019-02-05T14:46:13.049Z,63.17
2019-02-05T14:48:42.762Z,59.40
2019-02-05T14:51:12.797Z,58.47
2019-02-05T14:53:42.681Z,57.47
2019-02-05T14:56:12.554Z,55.90
2019-02-05T14:58:42.415Z,56.03
2019-02-05T15:01:12.341Z,54.73
2019-02-05T15:03:43.241Z,55.37
2019-02-05T15:06:13.246Z,53.87
2019-02-05T15:08:43.458Z,52.53
2019-02-05T15:11:13.401Z,50.50
2019-02-05T15:13:43.405Z,49.70
2019-02-05T15:16:13.434Z,49.13
2019-02-05T15:18:45.163Z,47.43
2019-02-05T15:21:14.953Z,47.93
2019-02-05T15:23:44.807Z,45.27
2019-02-05T15:26:14.699Z,44.40
2019-02-05T15:28:44.658Z,43.70
2019-02-05T15:31:14.720Z,43.57
2019-02-05T15:33:52.054Z,41.60
2019-02-05T15:36:31.614Z,40.97
2019-02-05T15:39:01.462Z,42.57
2019-02-05T15:41:32.879Z,41.67
2019-02-05T15:44:02.899Z,39.00
2019-02-05T15:46:33.883Z,38.80
2019-02-05T15:49:03.862Z,38.80
2019-02-05T15:51:33.834Z,37.87
2019-02-05T15:54:03.838Z,36.73
2019-02-05T15:56:33.891Z,37.03
2019-02-05T15:59:06.546Z,34.87
2019-02-05T16:01:36.480Z,34.97
2019-02-05T16:04:06.374Z,34.43
2019-02-05T16:06:36.384Z,35.07
2019-02-05T16:09:08.469Z,33.57
2019-02-05T16:11:38.321Z,34.67
2019-02-05T16:14:08.472Z,33.77
2019-02-05T16:16:38.527Z,33.23
2019-02-05T16:19:08.585Z,34.67
2019-02-05T16:21:38.543Z,32.63
2019-02-05T16:24:08.548Z,32.07
2019-02-05T16:26:38.402Z,31.40
2019-02-05T16:29:08.533Z,32.70
2019-02-05T16:31:38.479Z,32.33
2019-02-05T16:34:08.487Z,30.73
2019-02-05T16:36:38.519Z,29.80
2019-02-05T16:39:10.388Z,30.93
2019-02-05T16:41:40.430Z,29.47
2019-02-05T16:44:10.372Z,28.87
2019-02-05T16:46:40.314Z,28.63
2019-02-05T16:49:10.197Z,29.33
2019-02-05T16:51:40.228Z,28.63
2019-02-05T16:54:10.156Z,27.30
2019-02-05T16:56:40.442Z,28.87
2019-02-05T16:59:10.383Z,27.63
2019-02-05T17:01:40.326Z,27.27
2019-02-05T17:04:10.339Z,26.13
2019-02-05T17:06:40.430Z,27.20
2019-02-05T17:09:15.357Z,26.13
2019-02-05T17:11:45.421Z,26.73
2019-02-05T17:14:15.347Z,27.10
2019-02-05T17:16:45.358Z,27.00
2019-02-05T17:19:15.282Z,27.00
2019-02-05T17:21:45.229Z,26.60
2019-02-05T17:24:15.485Z,25.93
2019-02-05T17:26:45.425Z,25.67
2019-02-05T17:29:15.369Z,24.77
2019-02-05T17:31:45.310Z,24.87
2019-02-05T17:34:15.359Z,25.17
2019-02-05T17:36:45.261Z,24.07
2019-02-05T17:39:15.399Z,23.17
2019-02-05T17:41:45.412Z,24.70
2019-02-05T17:44:15.466Z,24.37
2019-02-05T17:46:45.421Z,23.37
2019-02-05T17:49:15.380Z,24.07
2019-02-05T17:51:45.310Z,22.27
2019-02-05T17:54:15.393Z,23.37
2019-02-05T17:56:45.747Z,23.17
2019-02-05T17:59:15.759Z,22.10
2019-02-05T18:01:45.834Z,22.80
2019-02-05T18:04:15.802Z,22.70
2019-02-05T18:06:46.245Z,23.27
2019-02-05T18:09:16.333Z,21.90
2019-02-05T18:11:46.285Z,22.30
2019-02-05T18:14:16.219Z,23.10
2019-02-05T18:16:46.257Z,22.13
2019-02-05T18:19:16.278Z,22.17
2019-02-05T18:21:46.419Z,21.97
2019-02-05T18:24:16.476Z,22.73
2019-02-05T18:26:47.454Z,21.40
2019-02-05T18:29:17.530Z,21.90
2019-02-05T18:31:47.568Z,20.80
2019-02-05T18:34:19.325Z,21.23
2019-02-05T18:36:50.235Z,22.07
2019-02-05T18:39:20.255Z,21.93
2019-02-05T18:41:50.278Z,20.87
2019-02-05T18:44:20.289Z,20.40
2019-02-05T18:46:50.153Z,21.60
2019-02-05T18:49:20.415Z,21.23
2019-02-05T18:51:50.445Z,20.53
2019-02-05T18:54:20.546Z,21.77
2019-02-05T18:56:50.599Z,21.40
2019-02-05T18:59:20.523Z,20.83
2019-02-05T19:01:50.523Z,20.20
2019-02-05T19:04:20.465Z,20.27
2019-02-05T19:06:50.416Z,20.70
2019-02-05T19:09:20.362Z,20.47
2019-02-05T19:11:50.395Z,20.20
2019-02-05T19:14:23.174Z,20.40
2019-02-05T19:16:52.006Z,20.37
2019-02-05T19:19:21.949Z,19.70
2019-02-05T19:21:51.894Z,19.80
2019-02-05T19:24:39.520Z,20.23
2019-02-05T19:27:09.501Z,19.67
2019-02-05T19:29:39.421Z,19.57
2019-02-05T19:32:09.586Z,19.23
2019-02-05T19:34:39.645Z,19.43
2019-02-05T19:37:09.617Z,19.67
2019-02-05T19:39:39.590Z,19.37
2019-02-05T19:42:09.627Z,19.13
2019-02-05T19:44:41.454Z,19.37
2019-02-05T19:47:25.827Z,19.63
2019-02-05T19:49:58.362Z,19.20
2019-02-05T19:52:28.678Z,19.57
2019-02-05T19:54:58.719Z,18.93
2019-02-05T19:57:28.774Z,19.53
2019-02-05T19:59:58.982Z,19.00
2019-02-05T20:02:28.939Z,18.13
2019-02-05T20:04:58.972Z,19.40
2019-02-05T20:07:29.020Z,19.47
2019-02-05T20:09:59.115Z,18.63
2019-02-05T20:12:29.498Z,19.97
2019-02-05T20:14:59.451Z,18.83
2019-02-05T20:17:29.506Z,18.90
2019-02-05T20:19:59.531Z,18.40
2019-02-05T20:22:29.550Z,18.60
2019-02-05T20:24:59.460Z,18.13
2019-02-05T20:27:29.718Z,18.20
2019-02-05T20:29:59.729Z,18.80
2019-02-05T20:32:29.674Z,18.40
2019-02-05T20:34:59.742Z,18.57
2019-02-05T20:37:29.749Z,18.73
2019-02-05T20:39:59.749Z,18.07
2019-02-05T20:42:30.162Z,17.83
2019-02-05T20:45:01.406Z,18.63
2019-02-05T20:47:31.488Z,18.63
2019-02-05T20:50:01.640Z,18.57
2019-02-05T20:52:32.807Z,17.73
2019-02-05T20:55:03.064Z,18.00
2019-02-05T20:57:33.435Z,17.97
2019-02-05T21:00:03.515Z,17.77
2019-02-05T21:02:33.582Z,17.27
2019-02-05T21:05:03.734Z,18.07
2019-02-05T21:07:33.682Z,17.83
2019-02-05T21:10:03.642Z,17.20
2019-02-05T21:12:34.137Z,18.10
2019-02-05T21:15:04.835Z,17.80
2019-02-05T21:17:34.777Z,17.70
2019-02-05T21:20:05.431Z,17.70
2019-02-05T21:22:35.395Z,18.20
2019-02-05T21:25:07.706Z,18.03
2019-02-05T21:27:38.037Z,18.23
2019-02-05T21:30:10.202Z,18.17
2019-02-05T21:32:40.057Z,18.50
2019-02-05T21:35:10.268Z,18.17
2019-02-05T21:37:40.288Z,17.70
2019-02-05T21:40:14.093Z,17.83
2019-02-05T21:42:44.145Z,17.80
2019-02-05T21:45:16.440Z,17.03
2019-02-05T21:47:46.420Z,18.70
2019-02-05T21:50:20.809Z,17.53
2019-02-05T21:52:50.830Z,17.90
2019-02-05T21:55:21.137Z,18.23
2019-02-05T21:57:51.063Z,17.33
2019-02-05T22:00:23.734Z,17.43
2019-02-05T22:02:53.798Z,18.30
2019-02-05T22:05:23.942Z,17.67
2019-02-05T22:07:53.981Z,18.20
2019-02-05T22:10:24.358Z,16.60
2019-02-05T22:12:54.397Z,16.87
2019-02-05T22:15:24.751Z,16.87
2019-02-05T22:17:54.862Z,16.80
2019-02-05T22:20:25.933Z,17.23
2019-02-05T22:22:56.222Z,17.30
2019-02-05T22:25:28.135Z,17.60
2019-02-05T22:27:58.159Z,17.17
2019-02-05T22:30:29.917Z,17.43
2019-02-05T22:32:59.943Z,16.10
2019-02-05T22:35:29.993Z,17.63
2019-02-05T22:38:00.148Z,17.43
2019-02-05T22:40:30.113Z,16.40
2019-02-05T22:43:00.082Z,16.63
2019-02-05T22:45:30.539Z,16.60
2019-02-05T22:48:00.599Z,16.43
2019-02-05T22:50:31.917Z,16.80
2019-02-05T22:53:03.159Z,16.67
2019-02-05T22:55:33.195Z,15.87
2019-02-05T22:58:03.273Z,16.43
2019-02-05T23:01:03.684Z,16.43
2019-02-05T23:03:55.813Z,16.07
2019-02-05T23:07:10.500Z,15.63
2019-02-05T23:10:04.738Z,15.27
2019-02-05T23:12:45.004Z,15.63
2019-02-05T23:15:33.215Z,16.00
2019-02-05T23:18:03.246Z,15.07
2019-02-05T23:20:33.394Z,15.30
2019-02-05T23:23:03.368Z,15.23
2019-02-05T23:25:33.418Z,15.10
2019-02-05T23:28:04.322Z,15.37
2019-02-05T23:30:34.262Z,15.07
2019-02-05T23:33:04.286Z,15.80
2019-02-05T23:35:34.218Z,15.17
2019-02-05T23:38:04.229Z,14.90
2019-02-05T23:40:34.247Z,14.43
2019-02-05T23:43:04.350Z,14.63
2019-02-05T23:45:35.277Z,14.60
2019-02-05T23:48:05.762Z,14.33
2019-02-05T23:50:35.816Z,14.20
2019-02-05T23:53:05.878Z,14.60
2019-02-05T23:55:36.982Z,14.27
2019-02-05T23:58:06.982Z,14.30
